Time;durP1;ratioP1;P1;durP2;ratioP2;P2;SDS_P1;SDS_P2;PMS_P1;PMS_P2;Temp;Humidity;BMP_temperature;BMP_pressure;BME280_temperature;BME280_humidity;BME280_pressure;Samples;Min_cycle;Max_cycle;Signal;HPM_P1;HPM_P2
2023/09/03 00:00:58;;;;;;;4.75;2.88;;;;;;;;;;4959125;28;20515;-71
2023/09/03 00:03:23;;;;;;;2.22;1.90;;;;;;;;;;4960384;28;20155;-71
2023/09/03 00:05:51;;;;;;;4.47;2.80;;;;;;;;;;4964840;28;20111;-71
2023/09/03 00:08:16;;;;;;;2.28;2.00;;;;;;;;;;4955520;28;20035;-71
2023/09/03 00:10:42;;;;;;;1.70;1.60;;;;;;;;;;4959641;28;20038;-71
2023/09/03 00:13:07;;;;;;;3.08;2.15;;;;;;;;;;4949306;28;20499;-71
2023/09/03 00:15:33;;;;;;;1.80;1.65;;;;;;;;;;4962944;28;20146;-72
2023/09/03 00:17:59;;;;;;;1.80;1.70;;;;;;;;;;4966235;28;20034;-72
2023/09/03 00:20:24;;;;;;;1.90;1.80;;;;;;;;;;4959472;28;20101;-72
2023/09/03 00:22:50;;;;;;;2.33;2.13;;;;;;;;;;4959584;28;20039;-72
2023/09/03 00:25:15;;;;;;;2.13;1.90;;;;;;;;;;4953161;28;20133;-72
2023/09/03 00:27:40;;;;;;;2.30;1.83;;;;;;;;;;4950210;28;20042;-71
2023/09/03 00:30:06;;;;;;;2.22;2.03;;;;;;;;;;4959587;28;20050;-71
2023/09/03 00:32:32;;;;;;;2.05;1.83;;;;;;;;;;4962034;28;20081;-71
2023/09/03 00:34:58;;;;;;;1.90;1.80;;;;;;;;;;4963405;28;20070;-71
2023/09/03 00:37:24;;;;;;;5.88;3.40;;;;;;;;;;4966018;28;20046;-71
2023/09/03 00:39:49;;;;;;;3.78;3.22;;;;;;;;;;4957461;28;20119;-71
2023/09/03 00:42:15;;;;;;;2.72;2.20;;;;;;;;;;4947748;28;20457;-72
2023/09/03 00:44:40;;;;;;;2.80;2.40;;;;;;;;;;4962086;28;20134;-71
2023/09/03 00:47:07;;;;;;;3.55;2.30;;;;;;;;;;4961974;28;20041;-72
2023/09/03 00:49:32;;;;;;;2.30;2.10;;;;;;;;;;4958730;28;20121;-72
2023/09/03 00:51:58;;;;;;;1.90;1.80;;;;;;;;;;4958620;28;20484;-71
2023/09/03 00:54:24;;;;;;;2.10;1.73;;;;;;;;;;4960282;28;20724;-71
2023/09/03 00:56:49;;;;;;;2.28;1.92;;;;;;;;;;4949223;28;20059;-71
2023/09/03 00:59:18;;;;;;;2.50;2.00;;;;;;;;;;4957289;28;20443;-71
2023/09/03 01:01:43;;;;;;;4.18;2.67;;;;;;;;;;4962145;28;20048;-71
2023/09/03 01:04:10;;;;;;;4.07;2.83;;;;;;;;;;4959277;28;20043;-71
2023/09/03 01:06:35;;;;;;;2.35;2.15;;;;;;;;;;4958240;28;20043;-72
2023/09/03 01:09:01;;;;;;;4.68;3.28;;;;;;;;;;4952239;28;20586;-72
2023/09/03 01:11:53;;;;;;;2.75;2.42;;;;;;;;;;4961997;28;20037;-72
2023/09/03 01:15:05;;;;;;;2.22;1.80;;;;;;;;;;4957280;28;20667;-72
2023/09/03 01:18:12;;;;;;;1.70;1.60;;;;;;;;;;4933044;28;20062;-72
2023/09/03 01:21:19;;;;;;;2.47;2.28;;;;;;;;;;4956026;28;20121;-71
2023/09/03 01:23:57;;;;;;;2.00;1.80;;;;;;;;;;4951787;28;20038;-72
2023/09/03 01:26:31;;;;;;;1.75;1.63;;;;;;;;;;4949691;28;20082;-72
2023/09/03 01:28:58;;;;;;;2.28;2.08;;;;;;;;;;4958467;28;20035;-72
2023/09/03 01:31:24;;;;;;;2.33;1.83;;;;;;;;;;4959435;28;20046;-72
2023/09/03 01:33:50;;;;;;;1.85;1.75;;;;;;;;;;4962712;28;20779;-72
2023/09/03 01:36:16;;;;;;;3.10;2.80;;;;;;;;;;4956768;28;20408;-71
2023/09/03 01:38:42;;;;;;;3.75;3.22;;;;;;;;;;4947780;28;20531;-71
2023/09/03 01:41:07;;;;;;;3.30;3.00;;;;;;;;;;4958576;28;20042;-72
2023/09/03 01:43:33;;;;;;;3.40;2.42;;;;;;;;;;4957164;28;20069;-72
2023/09/03 01:46:19;;;;;;;5.00;4.18;;;;;;;;;;4957294;28;20054;-71
2023/09/03 01:48:59;;;;;;;5.50;4.28;;;;;;;;;;4957878;28;20043;-71
2023/09/03 01:51:51;;;;;;;8.43;5.90;;;;;;;;;;4931671;28;20420;-71
2023/09/03 01:54:21;;;;;;;10.75;5.28;;;;;;;;;;4955683;28;20030;-71
2023/09/03 01:56:54;;;;;;;11.15;7.43;;;;;;;;;;4957211;28;20034;-72
2023/09/03 01:59:20;;;;;;;9.75;8.40;;;;;;;;;;4958573;28;20039;-71
2023/09/03 02:01:49;;;;;;;5.70;4.30;;;;;;;;;;4951879;28;20047;-71
2023/09/03 02:04:15;;;;;;;4.03;3.30;;;;;;;;;;4959386;28;20042;-71
2023/09/03 02:06:45;;;;;;;4.50;3.17;;;;;;;;;;4960811;28;20046;-72
2023/09/03 02:09:10;;;;;;;3.43;3.13;;;;;;;;;;4960501;28;20026;-71
2023/09/03 02:11:36;;;;;;;2.20;2.00;;;;;;;;;;4957372;28;20276;-71
2023/09/03 02:14:01;;;;;;;2.50;2.25;;;;;;;;;;4945505;28;20054;-71
2023/09/03 02:16:26;;;;;;;3.63;3.20;;;;;;;;;;4957625;28;20035;-71
2023/09/03 02:18:52;;;;;;;2.75;2.50;;;;;;;;;;4961052;28;20535;-71
2023/09/03 02:21:17;;;;;;;3.15;2.70;;;;;;;;;;4960512;28;20054;-71
2023/09/03 02:23:42;;;;;;;3.97;3.17;;;;;;;;;;4960804;28;20039;-71
2023/09/03 02:26:08;;;;;;;3.10;2.60;;;;;;;;;;4960346;28;20654;-71
2023/09/03 02:28:36;;;;;;;1.90;1.80;;;;;;;;;;4950052;28;20038;-71
2023/09/03 02:31:02;;;;;;;3.72;2.97;;;;;;;;;;4956076;28;20039;-71
2023/09/03 02:33:28;;;;;;;3.15;2.47;;;;;;;;;;4956195;28;20049;-71
2023/09/03 02:35:54;;;;;;;3.53;2.90;;;;;;;;;;4961738;28;20039;-71
2023/09/03 02:38:19;;;;;;;2.83;2.58;;;;;;;;;;4960531;28;20078;-71
2023/09/03 02:40:45;;;;;;;4.18;3.47;;;;;;;;;;4959674;28;20411;-71
2023/09/03 02:43:11;;;;;;;4.82;4.13;;;;;;;;;;4952722;28;20046;-71
2023/09/03 02:45:37;;;;;;;9.82;6.13;;;;;;;;;;4953624;28;20089;-71
2023/09/03 02:48:02;;;;;;;2.25;2.05;;;;;;;;;;4955687;28;20035;-71
2023/09/03 02:50:28;;;;;;;2.85;2.60;;;;;;;;;;4958344;28;20046;-71
2023/09/03 02:52:53;;;;;;;4.57;3.53;;;;;;;;;;4961032;28;20441;-71
2023/09/03 02:55:18;;;;;;;2.28;2.08;;;;;;;;;;4945546;28;20051;-71
2023/09/03 02:57:44;;;;;;;4.90;3.88;;;;;;;;;;4948541;28;20038;-71
2023/09/03 03:00:10;;;;;;;2.33;2.10;;;;;;;;;;4959608;28;20043;-71
2023/09/03 03:02:35;;;;;;;1.92;1.83;;;;;;;;;;4963059;28;20100;-71
2023/09/03 03:05:02;;;;;;;3.55;3.20;;;;;;;;;;4957089;28;20043;-71
2023/09/03 03:07:27;;;;;;;3.28;2.90;;;;;;;;;;4961471;28;20027;-71
2023/09/03 03:09:53;;;;;;;2.50;2.20;;;;;;;;;;4956988;28;20039;-71
2023/09/03 03:12:18;;;;;;;4.47;2.15;;;;;;;;;;4946253;28;20101;-71
2023/09/03 03:14:44;;;;;;;3.42;2.40;;;;;;;;;;4956698;28;20058;-72
2023/09/03 03:17:09;;;;;;;2.25;2.05;;;;;;;;;;4958519;28;20115;-71
2023/09/03 03:19:35;;;;;;;2.50;2.30;;;;;;;;;;4963055;28;20095;-71
2023/09/03 03:22:00;;;;;;;2.13;1.75;;;;;;;;;;4962595;28;20043;-71
2023/09/03 03:24:26;;;;;;;2.20;2.00;;;;;;;;;;4955693;28;20218;-72
2023/09/03 03:26:52;;;;;;;6.57;4.45;;;;;;;;;;4948405;28;20045;-71
2023/09/03 03:29:17;;;;;;;3.38;2.50;;;;;;;;;;4957082;28;20809;-71
2023/09/03 03:31:43;;;;;;;3.40;3.10;;;;;;;;;;4958512;28;20133;-71
2023/09/03 03:34:08;;;;;;;3.78;3.25;;;;;;;;;;4963528;28;20423;-71
2023/09/03 03:36:33;;;;;;;3.28;2.97;;;;;;;;;;4960064;28;20062;-71
2023/09/03 03:38:59;;;;;;;3.72;3.15;;;;;;;;;;4959432;28;20065;-72
2023/09/03 03:41:25;;;;;;;5.88;4.13;;;;;;;;;;4936587;28;20039;-71
2023/09/03 03:43:51;;;;;;;2.42;2.15;;;;;;;;;;4955495;28;20042;-71
2023/09/03 03:46:19;;;;;;;3.33;3.03;;;;;;;;;;4963408;28;20496;-71
2023/09/03 03:48:45;;;;;;;2.75;2.55;;;;;;;;;;4961110;28;20050;-72
2023/09/03 03:51:10;;;;;;;3.83;3.08;;;;;;;;;;4960257;28;20035;-71
2023/09/03 03:53:36;;;;;;;6.05;5.22;;;;;;;;;;4963082;28;20038;-71
2023/09/03 03:56:07;;;;;;;2.63;2.42;;;;;;;;;;4950064;28;20062;-71
2023/09/03 03:58:35;;;;;;;7.32;5.75;;;;;;;;;;4966514;28;20082;-71
2023/09/03 04:01:09;;;;;;;9.93;7.72;;;;;;;;;;4962201;28;20615;-71
2023/09/03 04:03:35;;;;;;;10.40;7.85;;;;;;;;;;4963220;28;20094;-70
2023/09/03 04:06:01;;;;;;;4.97;4.47;;;;;;;;;;4962584;28;20043;-70
2023/09/03 04:08:30;;;;;;;3.13;2.83;;;;;;;;;;4955485;28;20118;-71
2023/09/03 04:11:06;;;;;;;6.43;5.20;;;;;;;;;;4964251;28;20039;-71
2023/09/03 04:13:32;;;;;;;2.55;2.35;;;;;;;;;;4962390;28;20046;-71
2023/09/03 04:15:58;;;;;;;10.00;6.60;;;;;;;;;;4959683;28;20042;-71
2023/09/03 04:18:25;;;;;;;5.90;5.05;;;;;;;;;;4963805;28;20050;-71
2023/09/03 04:20:52;;;;;;;4.10;3.42;;;;;;;;;;4951905;28;20046;-72
2023/09/03 04:23:18;;;;;;;6.55;4.22;;;;;;;;;;4962723;28;20050;-72
2023/09/03 04:25:43;;;;;;;6.60;5.63;;;;;;;;;;4962487;28;20113;-71
2023/09/03 04:28:08;;;;;;;5.72;4.63;;;;;;;;;;4966303;28;20546;-71
2023/09/03 04:30:37;;;;;;;7.43;5.25;;;;;;;;;;4961853;28;20051;-72
2023/09/03 04:33:04;;;;;;;6.57;5.75;;;;;;;;;;4941930;28;20459;-72
2023/09/03 04:35:30;;;;;;;11.32;6.90;;;;;;;;;;4948985;28;20155;-72
2023/09/03 04:37:55;;;;;;;4.47;3.70;;;;;;;;;;4959992;28;20043;-72
2023/09/03 04:40:21;;;;;;;3.45;2.92;;;;;;;;;;4938791;28;20044;-71
2023/09/03 04:42:46;;;;;;;7.75;6.50;;;;;;;;;;4938754;28;20031;-71
2023/09/03 04:45:12;;;;;;;3.10;2.80;;;;;;;;;;4927515;28;20035;-72
2023/09/03 04:47:37;;;;;;;2.92;2.65;;;;;;;;;;4937025;28;20129;-72
2023/09/03 04:50:03;;;;;;;3.25;2.75;;;;;;;;;;4940274;28;20038;-72
2023/09/03 04:52:28;;;;;;;3.90;2.83;;;;;;;;;;4967736;28;20041;-72
2023/09/03 04:54:54;;;;;;;9.35;7.00;;;;;;;;;;4952551;28;20038;-72
2023/09/03 04:57:20;;;;;;;4.45;3.45;;;;;;;;;;4961735;28;20078;-72
2023/09/03 04:59:46;;;;;;;6.47;5.43;;;;;;;;;;4961948;28;20511;-72
2023/09/03 05:02:12;;;;;;;9.90;7.43;;;;;;;;;;4952887;28;20055;-73
2023/09/03 05:04:38;;;;;;;9.07;6.82;;;;;;;;;;4965413;28;20121;-72
2023/09/03 05:07:05;;;;;;;10.13;7.22;;;;;;;;;;4959471;28;20823;-73
2023/09/03 05:09:31;;;;;;;6.88;5.43;;;;;;;;;;4960829;28;20576;-72
2023/09/03 05:11:56;;;;;;;7.50;6.28;;;;;;;;;;4960889;28;20049;-72
2023/09/03 05:14:22;;;;;;;5.25;4.72;;;;;;;;;;4963398;28;20093;-74
2023/09/03 05:16:47;;;;;;;13.95;9.32;;;;;;;;;;4950316;28;20045;-73
2023/09/03 05:19:14;;;;;;;6.15;4.32;;;;;;;;;;4961932;28;20049;-72
2023/09/03 05:21:43;;;;;;;17.15;12.00;;;;;;;;;;4961373;28;20038;-72
2023/09/03 05:24:11;;;;;;;13.02;8.82;;;;;;;;;;4962492;28;20047;-72
2023/09/03 05:26:37;;;;;;;7.85;6.57;;;;;;;;;;4950661;28;20038;-72
2023/09/03 05:29:02;;;;;;;12.85;9.93;;;;;;;;;;4962894;28;20444;-72
2023/09/03 05:31:30;;;;;;;15.80;11.82;;;;;;;;;;4952881;28;20050;-72
2023/09/03 05:33:56;;;;;;;17.88;11.98;;;;;;;;;;4959665;28;20035;-72
2023/09/03 05:36:22;;;;;;;13.45;9.30;;;;;;;;;;4961724;28;20043;-72
2023/09/03 05:38:47;;;;;;;17.88;12.27;;;;;;;;;;4960676;28;20602;-73
2023/09/03 05:41:13;;;;;;;20.05;13.80;;;;;;;;;;4959995;28;20039;-71
2023/09/03 05:43:38;;;;;;;19.33;13.00;;;;;;;;;;4954346;28;20096;-72
2023/09/03 05:46:04;;;;;;;16.75;12.38;;;;;;;;;;4954600;28;20050;-72
2023/09/03 05:48:30;;;;;;;15.57;10.77;;;;;;;;;;4959274;28;20138;-72
2023/09/03 05:50:57;;;;;;;5.07;4.53;;;;;;;;;;4928718;28;20467;-72
2023/09/03 05:53:24;;;;;;;7.20;5.68;;;;;;;;;;4956776;28;20124;-72
2023/09/03 05:55:49;;;;;;;5.85;5.10;;;;;;;;;;4959318;28;20046;-72
2023/09/03 05:58:14;;;;;;;7.05;5.68;;;;;;;;;;4948823;28;20035;-72
2023/09/03 06:00:41;;;;;;;6.18;5.35;;;;;;;;;;4959430;28;20700;-72
2023/09/03 06:03:06;;;;;;;9.32;6.80;;;;;;;;;;4959248;28;20094;-72
2023/09/03 06:05:32;;;;;;;14.82;10.90;;;;;;;;;;4958843;28;20071;-72
2023/09/03 06:07:58;;;;;;;10.23;8.10;;;;;;;;;;4959095;28;20050;-72
2023/09/03 06:10:24;;;;;;;9.60;7.38;;;;;;;;;;4956981;28;20043;-72
2023/09/03 06:12:50;;;;;;;8.63;6.32;;;;;;;;;;4946046;28;20118;-71
2023/09/03 06:15:15;;;;;;;8.25;6.70;;;;;;;;;;4956513;28;20122;-71
2023/09/03 06:17:41;;;;;;;14.65;11.00;;;;;;;;;;4956795;28;20411;-71
2023/09/03 06:20:06;;;;;;;7.88;6.22;;;;;;;;;;4956898;28;20126;-72
2023/09/03 06:22:32;;;;;;;10.20;7.68;;;;;;;;;;4956100;28;20105;-71
2023/09/03 06:24:57;;;;;;;11.48;8.60;;;;;;;;;;4956198;28;20035;-71
2023/09/03 06:27:23;;;;;;;16.13;11.13;;;;;;;;;;4944927;28;20031;-71
2023/09/03 06:29:49;;;;;;;7.50;5.80;;;;;;;;;;4954100;28;20034;-72
2023/09/03 06:32:14;;;;;;;5.63;5.03;;;;;;;;;;4956317;28;20191;-72
2023/09/03 06:34:40;;;;;;;9.15;6.93;;;;;;;;;;4956093;28;20066;-71
2023/09/03 06:37:07;;;;;;;8.73;6.57;;;;;;;;;;4956471;28;20403;-71
2023/09/03 06:39:32;;;;;;;5.65;4.78;;;;;;;;;;4955302;28;20559;-71
2023/09/03 06:41:58;;;;;;;8.48;6.03;;;;;;;;;;4948173;28;20146;-72
2023/09/03 06:44:24;;;;;;;5.38;4.65;;;;;;;;;;4956770;28;20126;-71
2023/09/03 06:46:50;;;;;;;4.85;4.35;;;;;;;;;;4955783;28;20074;-71
2023/09/03 06:49:15;;;;;;;4.32;3.90;;;;;;;;;;4955601;28;20535;-72
2023/09/03 06:51:41;;;;;;;8.35;5.55;;;;;;;;;;4955811;28;20504;-73
2023/09/03 06:54:06;;;;;;;9.82;7.30;;;;;;;;;;4955888;28;20679;-73
2023/09/03 06:56:31;;;;;;;4.55;4.03;;;;;;;;;;4945987;28;20054;-72
2023/09/03 06:58:57;;;;;;;3.60;3.30;;;;;;;;;;4955762;28;20101;-72
2023/09/03 07:01:22;;;;;;;10.07;7.50;;;;;;;;;;4954438;28;20104;-72
2023/09/03 07:03:48;;;;;;;4.70;4.20;;;;;;;;;;4954928;28;20518;-72
2023/09/03 07:06:13;;;;;;;9.80;6.57;;;;;;;;;;4955879;28;20598;-72
2023/09/03 07:08:38;;;;;;;3.58;3.28;;;;;;;;;;4955584;28;20062;-74
2023/09/03 07:11:04;;;;;;;3.50;3.20;;;;;;;;;;4945372;28;20050;-72
2023/09/03 07:13:29;;;;;;;9.00;6.65;;;;;;;;;;4961633;28;20030;-72
2023/09/03 07:15:55;;;;;;;3.50;3.20;;;;;;;;;;4955963;28;20058;-72
2023/09/03 07:18:20;;;;;;;5.35;4.68;;;;;;;;;;4959856;28;20070;-71
2023/09/03 07:20:45;;;;;;;5.07;3.97;;;;;;;;;;4954483;28;20669;-71
2023/09/03 07:23:11;;;;;;;3.47;3.17;;;;;;;;;;4921176;28;20042;-72
2023/09/03 07:25:36;;;;;;;8.10;6.53;;;;;;;;;;4926154;28;20062;-71
2023/09/03 07:28:02;;;;;;;8.38;6.10;;;;;;;;;;4954662;28;20034;-71
2023/09/03 07:30:29;;;;;;;8.93;6.25;;;;;;;;;;4954842;28;20786;-71
2023/09/03 07:32:55;;;;;;;4.47;4.07;;;;;;;;;;4954279;28;20498;-71
2023/09/03 07:35:20;;;;;;;4.25;3.85;;;;;;;;;;4955910;28;20130;-72
2023/09/03 07:37:46;;;;;;;4.70;4.10;;;;;;;;;;4955579;28;20043;-72
2023/09/03 07:40:12;;;;;;;4.13;3.70;;;;;;;;;;4954695;28;20050;-72
2023/09/03 07:42:37;;;;;;;5.35;4.20;;;;;;;;;;4962621;28;20936;-72
2023/09/03 07:45:03;;;;;;;3.67;3.30;;;;;;;;;;4951891;28;20478;-72
2023/09/03 07:47:28;;;;;;;3.25;2.95;;;;;;;;;;4943706;28;20519;-72
2023/09/03 07:49:53;;;;;;;3.63;3.30;;;;;;;;;;4955042;28;20042;-72
2023/09/03 07:52:20;;;;;;;4.32;3.92;;;;;;;;;;4947242;28;20189;-72
2023/09/03 07:54:45;;;;;;;4.68;4.25;;;;;;;;;;4956720;28;20034;-72
2023/09/03 07:57:10;;;;;;;3.50;3.20;;;;;;;;;;4963347;28;20068;-72
2023/09/03 07:59:36;;;;;;;6.80;4.28;;;;;;;;;;4963054;28;20128;-72
2023/09/03 08:02:02;;;;;;;5.50;4.63;;;;;;;;;;4964586;28;20078;-72
2023/09/03 08:04:28;;;;;;;7.63;4.57;;;;;;;;;;4960322;28;20554;-72
2023/09/03 08:06:54;;;;;;;4.53;4.07;;;;;;;;;;4951375;28;20118;-72
2023/09/03 08:09:23;;;;;;;5.60;4.75;;;;;;;;;;4956533;28;20157;-72
2023/09/03 08:11:49;;;;;;;3.63;2.75;;;;;;;;;;4963534;28;20049;-72
2023/09/03 08:14:14;;;;;;;5.20;4.70;;;;;;;;;;4958953;28;20043;-72
2023/09/03 08:16:39;;;;;;;3.13;2.83;;;;;;;;;;4960313;28;20047;-72
2023/09/03 08:19:05;;;;;;;6.18;4.28;;;;;;;;;;4957738;28;20122;-72
2023/09/03 08:21:30;;;;;;;3.38;3.00;;;;;;;;;;4957361;28;20047;-72
2023/09/03 08:23:56;;;;;;;3.83;2.80;;;;;;;;;;4966780;28;20109;-72
2023/09/03 08:26:21;;;;;;;3.03;2.83;;;;;;;;;;4964868;28;20176;-72
2023/09/03 08:28:46;;;;;;;3.25;2.97;;;;;;;;;;4960604;28;20042;-72
2023/09/03 08:31:13;;;;;;;5.00;4.13;;;;;;;;;;4962707;28;20077;-72
2023/09/03 08:33:40;;;;;;;6.25;4.75;;;;;;;;;;4958000;28;20047;-72
2023/09/03 08:36:06;;;;;;;4.78;4.13;;;;;;;;;;4947478;28;20058;-72
2023/09/03 08:38:31;;;;;;;2.88;2.45;;;;;;;;;;4960615;28;20089;-72
2023/09/03 08:40:57;;;;;;;6.00;4.30;;;;;;;;;;4958393;28;20097;-72
2023/09/03 08:43:24;;;;;;;7.88;4.28;;;;;;;;;;4963079;28;20030;-72
2023/09/03 08:45:54;;;;;;;4.07;3.30;;;;;;;;;;4958461;28;20122;-72
2023/09/03 08:48:20;;;;;;;6.47;4.40;;;;;;;;;;4956500;28;20047;-72
2023/09/03 08:50:46;;;;;;;5.45;4.63;;;;;;;;;;4957180;28;20143;-72
2023/09/03 08:53:11;;;;;;;6.00;4.25;;;;;;;;;;4957667;28;20590;-72
2023/09/03 08:55:39;;;;;;;4.68;3.47;;;;;;;;;;4957345;28;20043;-72
2023/09/03 08:58:04;;;;;;;5.65;4.00;;;;;;;;;;4964699;28;20039;-72
2023/09/03 09:00:31;;;;;;;5.90;4.53;;;;;;;;;;4945215;28;20517;-72
2023/09/03 09:03:00;;;;;;;3.55;3.20;;;;;;;;;;4952042;28;20039;-72
2023/09/03 09:05:26;;;;;;;2.72;2.50;;;;;;;;;;4956939;28;20101;-73
2023/09/03 09:07:52;;;;;;;5.93;3.75;;;;;;;;;;4958791;28;20042;-72
2023/09/03 09:10:22;;;;;;;8.07;4.25;;;;;;;;;;4961450;28;20545;-72
2023/09/03 09:13:03;;;;;;;5.22;3.28;;;;;;;;;;4957557;28;20046;-72
2023/09/03 09:15:29;;;;;;;3.15;2.85;;;;;;;;;;4955143;28;20543;-73
2023/09/03 09:17:54;;;;;;;5.80;3.55;;;;;;;;;;4961632;28;20039;-73
2023/09/03 09:20:20;;;;;;;2.60;2.40;;;;;;;;;;4956843;28;20034;-73
2023/09/03 09:22:48;;;;;;;2.78;2.58;;;;;;;;;;4957258;28;20042;-72
2023/09/03 09:25:23;;;;;;;4.35;3.95;;;;;;;;;;4961695;28;20078;-73
2023/09/03 09:27:49;;;;;;;5.55;4.15;;;;;;;;;;4950113;28;20047;-73
2023/09/03 09:30:19;;;;;;;5.00;4.20;;;;;;;;;;4960367;28;20039;-73
2023/09/03 09:32:45;;;;;;;6.68;3.95;;;;;;;;;;4962293;28;20038;-73
2023/09/03 09:35:22;;;;;;;5.75;4.32;;;;;;;;;;4957722;28;20042;-73
2023/09/03 09:37:48;;;;;;;3.28;2.97;;;;;;;;;;4961329;28;20134;-72
2023/09/03 09:40:23;;;;;;;2.47;2.28;;;;;;;;;;4955799;28;20126;-73
2023/09/03 09:42:53;;;;;;;3.65;3.15;;;;;;;;;;4959683;28;20098;-73
2023/09/03 09:45:19;;;;;;;5.57;3.63;;;;;;;;;;4960818;28;20412;-73
2023/09/03 09:47:46;;;;;;;3.35;3.05;;;;;;;;;;4959040;28;20057;-73
2023/09/03 09:50:11;;;;;;;3.00;2.70;;;;;;;;;;4945358;28;20109;-73
2023/09/03 09:52:37;;;;;;;4.63;3.80;;;;;;;;;;4945254;28;20042;-73
2023/09/03 09:55:02;;;;;;;2.97;2.78;;;;;;;;;;4946891;28;20043;-73
2023/09/03 09:57:28;;;;;;;2.55;2.35;;;;;;;;;;4958590;28;20034;-73
2023/09/03 09:59:56;;;;;;;2.28;2.17;;;;;;;;;;4944852;28;20039;-73
2023/09/03 10:02:22;;;;;;;2.60;2.40;;;;;;;;;;4954907;28;20070;-73
2023/09/03 10:04:51;;;;;;;2.95;2.65;;;;;;;;;;4957262;28;20544;-73
2023/09/03 10:07:16;;;;;;;5.93;2.67;;;;;;;;;;4957039;28;20125;-73
2023/09/03 10:09:43;;;;;;;2.25;2.05;;;;;;;;;;4949765;28;20633;-73
2023/09/03 10:12:09;;;;;;;3.10;2.80;;;;;;;;;;4960124;28;20042;-73
2023/09/03 10:14:36;;;;;;;2.40;2.05;;;;;;;;;;4966842;28;20066;-73
2023/09/03 10:17:06;;;;;;;2.30;2.10;;;;;;;;;;4956913;28;20034;-73
2023/09/03 10:19:42;;;;;;;3.35;2.30;;;;;;;;;;4943175;28;21347;-73
2023/09/03 10:22:14;;;;;;;2.20;2.00;;;;;;;;;;4946912;28;20105;-73
2023/09/03 10:24:42;;;;;;;2.35;1.95;;;;;;;;;;4957552;28;20081;-73
2023/09/03 10:27:13;;;;;;;2.42;2.22;;;;;;;;;;4938430;28;20035;-73
2023/09/03 10:29:40;;;;;;;;;;;;;;;;;;4953748;28;20082;-73
2023/09/03 10:32:06;;;;;;;2.35;2.15;;;;;;;;;;4960406;28;19918;-73
2023/09/03 10:34:35;;;;;;;2.45;2.17;;;;;;;;;;4949773;28;20455;-73
2023/09/03 10:37:09;;;;;;;2.28;2.10;;;;;;;;;;4954229;28;20201;-73
2023/09/03 10:39:35;;;;;;;4.07;2.10;;;;;;;;;;4954203;28;20077;-73
2023/09/03 10:42:23;;;;;;;2.10;2.00;;;;;;;;;;4960379;28;20050;-72
2023/09/03 10:44:58;;;;;;;2.47;2.28;;;;;;;;;;4947924;28;20385;-73
2023/09/03 10:47:24;;;;;;;3.72;2.67;;;;;;;;;;4950922;28;20043;-73
2023/09/03 10:49:52;;;;;;;3.85;2.42;;;;;;;;;;4940175;28;20057;-73
2023/09/03 10:52:34;;;;;;;3.35;2.40;;;;;;;;;;4955757;28;20092;-73
2023/09/03 10:55:20;;;;;;;2.20;2.00;;;;;;;;;;4959651;28;20809;-73
2023/09/03 10:57:47;;;;;;;2.20;1.85;;;;;;;;;;4932955;28;20103;-73
2023/09/03 11:00:15;;;;;;;2.58;2.38;;;;;;;;;;4954380;28;20034;-73
2023/09/03 11:02:42;;;;;;;2.00;1.90;;;;;;;;;;4955463;28;20531;-73
2023/09/03 11:05:14;;;;;;;3.03;2.65;;;;;;;;;;4956157;28;20121;-73
2023/09/03 11:07:44;;;;;;;2.90;2.05;;;;;;;;;;4953173;28;20034;-73
2023/09/03 11:10:21;;;;;;;2.25;2.00;;;;;;;;;;4946429;28;20058;-73
2023/09/03 11:12:49;;;;;;;2.13;1.80;;;;;;;;;;4959522;28;20034;-73
2023/09/03 11:15:15;;;;;;;3.63;1.90;;;;;;;;;;4955069;28;20053;-73
2023/09/03 11:18:06;;;;;;;1.83;1.73;;;;;;;;;;4957007;28;20563;-73
2023/09/03 11:20:35;;;;;;;2.28;2.00;;;;;;;;;;4945698;28;20050;-74
2023/09/03 11:23:03;;;;;;;1.90;1.77;;;;;;;;;;4955763;28;20633;-74
2023/09/03 11:25:36;;;;;;;2.00;1.80;;;;;;;;;;4955156;28;21506;-73
2023/09/03 11:28:03;;;;;;;1.67;1.58;;;;;;;;;;4955807;28;20094;-73
2023/09/03 11:30:29;;;;;;;2.20;1.60;;;;;;;;;;4958389;28;20193;-74
2023/09/03 11:32:55;;;;;;;1.50;1.40;;;;;;;;;;4944960;28;20049;-74
2023/09/03 11:35:21;;;;;;;1.60;1.50;;;;;;;;;;4955195;28;20034;-74
2023/09/03 11:37:48;;;;;;;2.05;1.70;;;;;;;;;;4958895;28;20871;-74
2023/09/03 11:40:15;;;;;;;1.70;1.50;;;;;;;;;;4955773;28;20038;-74
2023/09/03 11:42:42;;;;;;;1.60;1.50;;;;;;;;;;4959115;28;20042;-74
2023/09/03 11:45:09;;;;;;;1.60;1.50;;;;;;;;;;4955106;28;20369;-74
2023/09/03 11:47:46;;;;;;;2.65;1.20;;;;;;;;;;4911324;28;20043;-73
2023/09/03 11:50:13;;;;;;;1.83;1.38;;;;;;;;;;4944036;28;20083;-73
2023/09/03 11:52:39;;;;;;;3.05;1.30;;;;;;;;;;4939263;28;20393;-74
2023/09/03 11:55:05;;;;;;;1.38;1.27;;;;;;;;;;4939735;28;20083;-74
2023/09/03 11:57:32;;;;;;;1.77;1.15;;;;;;;;;;4948859;28;20042;-74
2023/09/03 11:59:58;;;;;;;1.40;1.20;;;;;;;;;;4945304;28;21136;-74
2023/09/03 12:02:23;;;;;;;2.10;1.33;;;;;;;;;;4959909;28;20035;-74
2023/09/03 12:04:49;;;;;;;2.58;1.30;;;;;;;;;;4958614;28;20042;-74
2023/09/03 12:07:16;;;;;;;3.03;1.40;;;;;;;;;;4946752;28;20525;-74
2023/09/03 12:09:41;;;;;;;1.73;1.10;;;;;;;;;;4956352;28;20066;-74
2023/09/03 12:12:08;;;;;;;1.08;0.98;;;;;;;;;;4959233;28;20113;-74
2023/09/03 12:14:34;;;;;;;1.63;1.30;;;;;;;;;;4948349;28;20045;-73
2023/09/03 12:16:59;;;;;;;1.48;1.10;;;;;;;;;;4959282;28;20034;-74
2023/09/03 12:19:37;;;;;;;0.80;0.80;;;;;;;;;;4961967;28;20062;-74
2023/09/03 12:22:03;;;;;;;1.20;1.10;;;;;;;;;;4944393;28;20199;-74
2023/09/03 12:24:29;;;;;;;1.75;1.10;;;;;;;;;;4961432;28;20118;-74
2023/09/03 12:27:04;;;;;;;1.08;0.98;;;;;;;;;;4954110;28;20034;-74
2023/09/03 12:29:38;;;;;;;1.10;1.00;;;;;;;;;;4957045;28;20055;-74
2023/09/03 12:32:05;;;;;;;1.45;0.90;;;;;;;;;;4958551;28;20090;-74
2023/09/03 12:34:39;;;;;;;1.17;1.10;;;;;;;;;;4964144;28;20034;-73
2023/09/03 12:37:05;;;;;;;3.00;1.30;;;;;;;;;;4962885;28;20400;-74
2023/09/03 12:39:31;;;;;;;2.33;1.05;;;;;;;;;;4948407;28;20516;-74
2023/09/03 12:42:01;;;;;;;2.25;0.98;;;;;;;;;;4959740;28;20648;-74
2023/09/03 12:44:27;;;;;;;1.00;1.00;;;;;;;;;;4951758;28;20106;-74
2023/09/03 12:46:53;;;;;;;1.20;1.10;;;;;;;;;;4946977;28;20138;-74
2023/09/03 12:49:19;;;;;;;0.98;0.90;;;;;;;;;;4939336;28;20071;-74
2023/09/03 12:51:45;;;;;;;1.15;0.90;;;;;;;;;;4943305;28;20059;-74
2023/09/03 12:54:10;;;;;;;1.17;1.00;;;;;;;;;;4933601;28;20062;-74
2023/09/03 12:56:36;;;;;;;2.47;1.10;;;;;;;;;;4961503;28;20473;-74
2023/09/03 12:59:04;;;;;;;1.30;1.00;;;;;;;;;;4958083;28;20070;-74
2023/09/03 13:01:33;;;;;;;0.80;0.70;;;;;;;;;;4962122;28;20038;-74
2023/09/03 13:03:58;;;;;;;2.05;1.10;;;;;;;;;;4965139;28;20066;-74
2023/09/03 13:06:24;;;;;;;1.02;0.90;;;;;;;;;;4948717;28;20039;-74
2023/09/03 13:08:50;;;;;;;2.50;1.02;;;;;;;;;;4958804;28;20054;-74
2023/09/03 13:11:15;;;;;;;1.40;0.80;;;;;;;;;;4962405;28;20027;-74
2023/09/03 13:13:40;;;;;;;2.20;1.10;;;;;;;;;;4961144;28;20395;-74
2023/09/03 13:16:06;;;;;;;2.55;0.98;;;;;;;;;;4962010;28;20062;-74
2023/09/03 13:18:31;;;;;;;1.05;0.90;;;;;;;;;;4958296;28;20043;-74
2023/09/03 13:20:57;;;;;;;1.45;1.00;;;;;;;;;;4935011;28;20074;-74
2023/09/03 13:23:22;;;;;;;1.77;1.08;;;;;;;;;;4957846;28;20042;-74
2023/09/03 13:25:47;;;;;;;1.23;1.10;;;;;;;;;;4956929;28;20077;-73
2023/09/03 13:28:13;;;;;;;1.17;0.75;;;;;;;;;;4961290;28;20050;-73
2023/09/03 13:30:38;;;;;;;1.33;1.02;;;;;;;;;;4958295;28;20035;-74
2023/09/03 13:33:05;;;;;;;2.10;1.08;;;;;;;;;;4942800;28;20042;-73
2023/09/03 13:35:31;;;;;;;0.88;0.85;;;;;;;;;;4952557;28;20039;-74
2023/09/03 13:37:58;;;;;;;2.35;1.08;;;;;;;;;;4963718;28;20039;-74
2023/09/03 13:40:23;;;;;;;2.15;0.80;;;;;;;;;;4964198;28;20038;-74
2023/09/03 13:42:49;;;;;;;1.67;0.98;;;;;;;;;;4963911;28;20041;-74
2023/09/03 13:45:14;;;;;;;1.15;0.88;;;;;;;;;;4962915;28;20031;-74
2023/09/03 13:47:39;;;;;;;1.35;0.90;;;;;;;;;;4962373;28;20046;-74
2023/09/03 13:50:06;;;;;;;2.13;0.90;;;;;;;;;;4941319;28;20504;-74
2023/09/03 13:52:35;;;;;;;1.05;0.85;;;;;;;;;;4965826;28;20760;-74
2023/09/03 13:55:02;;;;;;;0.80;0.80;;;;;;;;;;4963950;28;20061;-74
2023/09/03 13:57:27;;;;;;;1.02;0.85;;;;;;;;;;4967069;28;20521;-74
2023/09/03 13:59:54;;;;;;;1.73;1.13;;;;;;;;;;4964284;28;20125;-74
2023/09/03 14:02:22;;;;;;;1.02;0.95;;;;;;;;;;4966219;28;20042;-74
2023/09/03 14:04:48;;;;;;;1.30;1.00;;;;;;;;;;4915482;28;20078;-74
2023/09/03 14:07:14;;;;;;;2.38;0.95;;;;;;;;;;4946536;28;20696;-74
2023/09/03 14:09:39;;;;;;;2.15;1.30;;;;;;;;;;4946051;28;20050;-74
2023/09/03 14:12:05;;;;;;;1.58;0.98;;;;;;;;;;4946221;28;20455;-74
2023/09/03 14:14:30;;;;;;;0.98;0.98;;;;;;;;;;4914968;28;20043;-73
2023/09/03 14:16:56;;;;;;;1.08;0.93;;;;;;;;;;4942182;28;20038;-74
2023/09/03 14:19:21;;;;;;;1.23;1.02;;;;;;;;;;4946326;28;20548;-74
2023/09/03 14:21:46;;;;;;;1.25;1.08;;;;;;;;;;4964828;28;20035;-73
2023/09/03 14:24:12;;;;;;;1.10;0.98;;;;;;;;;;4963147;28;20042;-74
2023/09/03 14:26:39;;;;;;;2.60;1.00;;;;;;;;;;4964044;28;20042;-73
2023/09/03 14:29:09;;;;;;;0.90;0.90;;;;;;;;;;4962466;28;20045;-73
2023/09/03 14:31:40;;;;;;;0.85;0.80;;;;;;;;;;4950592;28;20337;-73
2023/09/03 14:34:06;;;;;;;1.55;1.10;;;;;;;;;;4969478;28;20479;-73
2023/09/03 14:36:31;;;;;;;0.60;0.60;;;;;;;;;;4970035;28;20062;-73
2023/09/03 14:38:57;;;;;;;1.30;0.85;;;;;;;;;;4971209;28;20042;-73
2023/09/03 14:41:25;;;;;;;1.35;1.25;;;;;;;;;;4967143;28;20623;-73
2023/09/03 14:43:51;;;;;;;0.85;0.85;;;;;;;;;;4962181;28;20117;-73